createdAt,value
2018-09-27T00:00:16.443Z,0.00
2018-09-27T00:01:16.404Z,0.00
2018-09-27T00:02:16.380Z,0.00
2018-09-27T00:03:16.315Z,0.00
2018-09-27T00:04:26.653Z,0.00
2018-09-27T00:05:16.267Z,0.00
2018-09-27T00:06:16.227Z,0.00
2018-09-27T00:07:16.232Z,0.00
2018-09-27T00:08:16.097Z,0.00
2018-09-27T00:09:16.059Z,0.00
2018-09-27T00:10:16.014Z,0.00
2018-09-27T00:11:15.976Z,0.00
2018-09-27T00:12:15.935Z,0.00
2018-09-27T00:13:15.921Z,0.00
2018-09-27T00:14:15.868Z,0.00
2018-09-27T00:15:15.815Z,0.00
2018-09-27T00:16:15.774Z,0.00
2018-09-27T00:17:15.724Z,0.00
2018-09-27T00:18:15.739Z,0.00
2018-09-27T00:19:15.645Z,0.00
2018-09-27T00:20:15.632Z,0.00
2018-09-27T00:21:15.557Z,0.00
2018-09-27T00:22:15.513Z,0.00
2018-09-27T00:23:15.500Z,0.00
2018-09-27T00:24:15.454Z,0.00
2018-09-27T00:25:15.391Z,0.00
2018-09-27T00:26:15.343Z,0.00
2018-09-27T00:27:15.305Z,0.00
2018-09-27T00:28:15.298Z,0.00
2018-09-27T00:29:15.247Z,0.00
2018-09-27T00:30:15.184Z,0.00
2018-09-27T00:31:15.138Z,0.00
2018-09-27T00:32:15.132Z,0.00
2018-09-27T00:33:15.060Z,0.00
2018-09-27T00:34:15.037Z,0.00
2018-09-27T00:35:14.962Z,0.00
2018-09-27T00:36:14.941Z,0.00
2018-09-27T00:37:14.892Z,0.00
2018-09-27T00:38:14.857Z,0.00
2018-09-27T00:39:14.820Z,0.00
2018-09-27T00:40:14.783Z,0.00
2018-09-27T00:41:14.745Z,0.00
2018-09-27T00:42:14.698Z,0.00
2018-09-27T00:43:14.632Z,0.00
2018-09-27T00:44:14.623Z,0.00
2018-09-27T00:45:14.563Z,0.00
2018-09-27T00:46:14.520Z,0.00
2018-09-27T00:47:14.474Z,0.00
2018-09-27T00:48:14.419Z,0.00
2018-09-27T00:49:14.389Z,0.00
2018-09-27T00:50:14.365Z,0.00
2018-09-27T00:51:14.297Z,0.00
2018-09-27T00:52:14.269Z,0.00
2018-09-27T00:53:14.237Z,0.00
2018-09-27T00:54:14.178Z,0.00
2018-09-27T00:55:14.163Z,0.00
2018-09-27T00:56:14.087Z,0.00
2018-09-27T00:57:14.081Z,0.00
2018-09-27T00:58:13.998Z,0.00
2018-09-27T00:59:13.964Z,0.00
2018-09-27T01:00:13.942Z,0.00
2018-09-27T01:01:13.924Z,0.00
2018-09-27T01:02:13.861Z,0.00
2018-09-27T01:03:13.813Z,0.00
2018-09-27T01:04:13.796Z,0.00
2018-09-27T01:05:13.734Z,0.00
2018-09-27T01:06:13.659Z,0.00
2018-09-27T01:07:13.647Z,0.00
2018-09-27T01:08:13.590Z,0.00
2018-09-27T01:09:13.560Z,0.00
2018-09-27T01:10:13.492Z,0.00
2018-09-27T01:11:13.464Z,0.00
2018-09-27T01:12:13.475Z,0.00
2018-09-27T01:13:13.371Z,0.00
2018-09-27T01:14:13.332Z,0.00
2018-09-27T01:15:13.296Z,0.00
2018-09-27T01:16:13.256Z,0.00
2018-09-27T01:17:13.206Z,0.00
2018-09-27T01:18:13.204Z,0.00
2018-09-27T01:19:13.122Z,0.00
2018-09-27T01:20:13.112Z,0.00
2018-09-27T01:21:13.027Z,0.00
2018-09-27T01:22:13.015Z,0.00
2018-09-27T01:23:12.982Z,0.00
2018-09-27T01:24:12.926Z,0.00
2018-09-27T01:25:12.872Z,0.00
2018-09-27T01:26:12.834Z,0.00
2018-09-27T01:27:12.780Z,0.00
2018-09-27T01:28:12.745Z,0.00
2018-09-27T01:29:12.754Z,0.00
2018-09-27T01:30:12.673Z,0.00
2018-09-27T01:31:12.610Z,0.00
2018-09-27T01:32:12.585Z,0.00
2018-09-27T01:33:12.523Z,0.00
2018-09-27T01:34:12.532Z,0.00
2018-09-27T01:35:12.455Z,0.00
2018-09-27T01:36:12.418Z,0.00
2018-09-27T01:37:12.384Z,0.00
2018-09-27T01:38:12.315Z,0.00
2018-09-27T01:39:12.319Z,0.00
2018-09-27T01:40:12.246Z,0.00
2018-09-27T01:41:12.188Z,0.00
2018-09-27T01:42:12.193Z,0.00
2018-09-27T01:43:12.128Z,0.00
2018-09-27T01:44:12.084Z,0.00
2018-09-27T01:45:12.052Z,0.00
2018-09-27T01:46:12.039Z,0.00
2018-09-27T01:47:11.997Z,0.00
2018-09-27T01:48:11.904Z,0.00
2018-09-27T01:49:11.935Z,0.00
2018-09-27T01:50:11.816Z,0.00
2018-09-27T01:51:11.776Z,0.00
2018-09-27T01:52:11.746Z,0.00
2018-09-27T01:53:11.685Z,0.00
2018-09-27T01:54:11.645Z,0.00
2018-09-27T01:55:11.676Z,0.00
2018-09-27T01:56:11.563Z,0.00
2018-09-27T01:57:11.555Z,0.00
2018-09-27T01:58:11.482Z,0.00
2018-09-27T01:59:11.459Z,0.00
2018-09-27T02:00:11.395Z,0.00
2018-09-27T02:01:11.413Z,0.00
2018-09-27T02:02:11.308Z,0.00
2018-09-27T02:03:11.281Z,0.00
2018-09-27T02:04:11.232Z,0.00
2018-09-27T02:05:11.218Z,0.00
2018-09-27T02:06:11.175Z,0.00
2018-09-27T02:07:11.126Z,0.00
2018-09-27T02:08:11.057Z,0.00
2018-09-27T02:09:11.035Z,0.00
2018-09-27T02:10:10.979Z,0.00
2018-09-27T02:11:10.960Z,0.00
2018-09-27T02:12:10.923Z,0.00
2018-09-27T02:13:10.847Z,0.00
2018-09-27T02:14:10.806Z,0.00
2018-09-27T02:15:10.760Z,0.00
2018-09-27T02:16:10.753Z,0.00
2018-09-27T02:17:10.685Z,0.00
2018-09-27T02:18:10.669Z,0.00
2018-09-27T02:19:10.603Z,0.00
2018-09-27T02:20:10.560Z,0.00
2018-09-27T02:21:10.538Z,0.00
2018-09-27T02:22:10.473Z,0.00
2018-09-27T02:23:10.430Z,0.00
2018-09-27T02:24:10.397Z,0.00
2018-09-27T02:25:10.344Z,0.00
2018-09-27T02:26:10.340Z,0.00
2018-09-27T02:27:10.275Z,0.00
2018-09-27T02:28:10.223Z,0.00
2018-09-27T02:29:10.176Z,0.00
2018-09-27T02:30:10.155Z,0.00
2018-09-27T02:31:10.140Z,0.00
2018-09-27T02:32:10.076Z,0.00
2018-09-27T02:33:10.014Z,0.00
2018-09-27T02:34:09.982Z,0.00
2018-09-27T02:35:09.935Z,0.00
2018-09-27T02:36:09.897Z,0.00
2018-09-27T02:37:09.875Z,0.00
2018-09-27T02:38:09.798Z,0.00
2018-09-27T02:39:09.761Z,0.00
2018-09-27T02:40:09.708Z,0.00
2018-09-27T02:41:09.703Z,0.00
2018-09-27T02:42:09.637Z,0.00
2018-09-27T02:43:09.645Z,0.00
2018-09-27T02:44:09.572Z,0.00
2018-09-27T02:45:09.505Z,0.00
2018-09-27T02:46:09.450Z,0.00
2018-09-27T02:47:09.409Z,0.00
2018-09-27T02:48:09.546Z,0.00
2018-09-27T02:49:20.182Z,0.00
2018-09-27T02:50:09.365Z,0.00
2018-09-27T02:51:09.281Z,0.00
2018-09-27T02:52:09.202Z,0.00
2018-09-27T02:53:09.181Z,0.00
2018-09-27T02:54:09.147Z,0.00
2018-09-27T02:55:09.080Z,0.00
2018-09-27T02:56:09.089Z,0.00
2018-09-27T02:57:08.992Z,0.00
2018-09-27T02:58:08.950Z,0.00
2018-09-27T02:59:08.972Z,0.00
2018-09-27T03:00:08.906Z,0.00
2018-09-27T03:01:08.853Z,0.00
2018-09-27T03:02:08.804Z,0.00
2018-09-27T03:03:08.741Z,0.00
2018-09-27T03:04:08.755Z,0.00
2018-09-27T03:05:08.672Z,0.00
2018-09-27T03:06:08.637Z,0.00
2018-09-27T03:07:08.598Z,0.00
2018-09-27T03:08:08.555Z,0.00
2018-09-27T03:09:08.538Z,0.00
2018-09-27T03:10:08.449Z,0.00
2018-09-27T03:11:08.406Z,0.00
2018-09-27T03:12:08.371Z,0.00
2018-09-27T03:13:08.350Z,0.00
2018-09-27T03:14:08.290Z,0.00
2018-09-27T03:15:08.276Z,0.00
2018-09-27T03:16:08.223Z,0.00
2018-09-27T03:17:08.152Z,0.00
2018-09-27T03:18:08.132Z,0.00
2018-09-27T03:19:08.096Z,0.00
2018-09-27T03:20:08.061Z,0.00
2018-09-27T03:21:08.051Z,0.00
2018-09-27T03:22:07.951Z,0.00
2018-09-27T03:23:07.900Z,0.00
2018-09-27T03:24:07.862Z,0.00
2018-09-27T03:25:07.865Z,0.00
2018-09-27T03:26:07.805Z,0.00
2018-09-27T03:27:07.771Z,0.00
2018-09-27T03:28:07.707Z,0.00
2018-09-27T03:29:07.651Z,0.00
2018-09-27T03:30:07.704Z,0.00
2018-09-27T03:31:07.554Z,0.00
2018-09-27T03:32:07.527Z,0.00
2018-09-27T03:33:07.514Z,0.00
2018-09-27T03:34:07.458Z,0.00
2018-09-27T03:35:07.412Z,0.00
2018-09-27T03:36:07.351Z,0.00
2018-09-27T03:37:07.338Z,0.00
2018-09-27T03:38:07.286Z,0.00
2018-09-27T03:39:07.243Z,0.00
2018-09-27T03:40:07.321Z,0.00
2018-09-27T03:41:07.142Z,0.00
2018-09-27T03:42:07.105Z,0.00
2018-09-27T03:43:07.103Z,0.00
2018-09-27T03:44:07.065Z,0.00
2018-09-27T03:45:07.000Z,0.00
2018-09-27T03:46:06.946Z,0.00
2018-09-27T03:47:06.924Z,0.00
2018-09-27T03:48:06.919Z,0.00
2018-09-27T03:49:06.848Z,0.00
2018-09-27T03:50:06.773Z,0.00
2018-09-27T03:51:06.731Z,0.00
2018-09-27T03:52:06.708Z,0.00
2018-09-27T03:53:06.640Z,0.00
2018-09-27T03:54:06.625Z,0.00
2018-09-27T03:55:06.572Z,0.00
2018-09-27T03:56:06.522Z,0.00
2018-09-27T03:57:06.485Z,0.00
2018-09-27T03:58:06.472Z,0.00
2018-09-27T03:59:06.421Z,0.00
2018-09-27T04:00:06.361Z,0.00
2018-09-27T04:01:06.303Z,0.00
2018-09-27T04:02:06.272Z,0.00
2018-09-27T04:03:06.242Z,0.00
2018-09-27T04:04:06.216Z,0.00
2018-09-27T04:05:06.144Z,0.00
2018-09-27T04:06:06.098Z,0.00
2018-09-27T04:07:06.084Z,0.00
2018-09-27T04:08:06.028Z,0.00
2018-09-27T04:09:06.015Z,0.00
2018-09-27T04:10:05.942Z,0.00
2018-09-27T04:11:05.888Z,0.00
2018-09-27T04:12:05.843Z,0.00
2018-09-27T04:13:05.819Z,0.00
2018-09-27T04:14:05.782Z,0.00
2018-09-27T04:15:05.708Z,0.00
2018-09-27T04:16:05.680Z,0.00
2018-09-27T04:17:05.645Z,0.00
2018-09-27T04:18:05.594Z,0.00
2018-09-27T04:19:05.599Z,0.00
2018-09-27T04:20:05.509Z,0.00
2018-09-27T04:21:05.490Z,0.00
2018-09-27T04:22:05.447Z,0.00
2018-09-27T04:23:05.427Z,0.00
2018-09-27T04:24:05.415Z,0.00
2018-09-27T04:25:05.306Z,0.00
2018-09-27T04:26:05.282Z,0.00
2018-09-27T04:27:05.208Z,0.00
2018-09-27T04:28:05.218Z,0.00
2018-09-27T04:29:05.139Z,0.00
2018-09-27T04:30:05.093Z,0.00
2018-09-27T04:31:05.056Z,0.00
2018-09-27T04:32:05.017Z,0.00
2018-09-27T04:33:04.990Z,0.00
2018-09-27T04:34:04.942Z,0.00
2018-09-27T04:35:04.877Z,0.00
2018-09-27T04:36:04.879Z,0.00
2018-09-27T04:37:04.809Z,0.00
2018-09-27T04:38:04.781Z,0.00
2018-09-27T04:39:04.712Z,0.00
2018-09-27T04:40:04.689Z,0.00
2018-09-27T04:41:04.702Z,0.00
2018-09-27T04:42:04.600Z,0.00
2018-09-27T04:43:04.620Z,0.00
2018-09-27T04:44:04.513Z,0.00
2018-09-27T04:45:04.447Z,0.00
2018-09-27T04:46:04.431Z,0.00
2018-09-27T04:47:04.371Z,0.00
2018-09-27T04:48:04.362Z,0.00
2018-09-27T04:49:04.332Z,0.00
2018-09-27T04:50:04.264Z,0.00
2018-09-27T04:51:04.221Z,0.00
2018-09-27T04:52:04.161Z,0.00
2018-09-27T04:53:04.181Z,0.00
2018-09-27T04:54:04.097Z,0.00
2018-09-27T04:55:04.045Z,0.00
2018-09-27T04:56:04.038Z,0.00
2018-09-27T04:57:03.974Z,0.00
2018-09-27T04:58:03.938Z,0.00
2018-09-27T04:59:03.883Z,0.00
2018-09-27T05:00:03.871Z,0.00
2018-09-27T05:01:03.810Z,0.00
2018-09-27T05:02:03.768Z,0.00
2018-09-27T05:03:03.728Z,0.00
2018-09-27T05:04:03.674Z,0.00
2018-09-27T05:05:03.616Z,0.00
2018-09-27T05:06:03.581Z,0.00
2018-09-27T05:07:03.543Z,0.00
2018-09-27T05:08:03.532Z,0.00
2018-09-27T05:09:03.456Z,0.00
2018-09-27T05:10:03.422Z,0.00
2018-09-27T05:11:03.368Z,0.00
2018-09-27T05:12:03.347Z,0.00
2018-09-27T05:13:03.319Z,0.00
2018-09-27T05:14:03.235Z,0.00
2018-09-27T05:15:03.234Z,5.63
2018-09-27T05:16:03.183Z,5.63
2018-09-27T05:17:03.125Z,5.63
2018-09-27T05:18:03.074Z,5.63
2018-09-27T05:19:03.029Z,5.63
2018-09-27T05:20:02.996Z,5.63
2018-09-27T05:21:02.935Z,11.25
2018-09-27T05:22:02.942Z,11.25
2018-09-27T05:23:02.893Z,11.25
2018-09-27T05:24:02.814Z,11.25
2018-09-27T05:25:02.765Z,16.88
2018-09-27T05:26:02.720Z,16.88
2018-09-27T05:27:02.757Z,16.88
2018-09-27T05:28:02.632Z,22.50
2018-09-27T05:29:02.597Z,22.50
2018-09-27T05:30:02.556Z,22.50
2018-09-27T05:31:02.508Z,28.13
2018-09-27T05:32:02.490Z,28.13
2018-09-27T05:33:02.453Z,28.13
2018-09-27T05:34:02.393Z,33.75
2018-09-27T05:35:02.352Z,33.75
2018-09-27T05:36:02.304Z,39.38
2018-09-27T05:37:02.284Z,39.38
2018-09-27T05:38:02.232Z,39.38
2018-09-27T05:39:02.179Z,45.00
2018-09-27T05:40:02.136Z,45.00
2018-09-27T05:41:02.083Z,50.63
2018-09-27T05:42:02.074Z,50.63
2018-09-27T05:43:02.003Z,50.63
2018-09-27T05:44:01.966Z,56.25
2018-09-27T05:45:01.957Z,56.25
2018-09-27T05:46:01.871Z,61.88
2018-09-27T05:47:01.860Z,61.88
2018-09-27T05:48:01.795Z,67.50
2018-09-27T05:49:01.746Z,67.50
2018-09-27T05:50:01.714Z,67.50
2018-09-27T05:51:01.669Z,73.13
2018-09-27T05:52:01.677Z,73.13
2018-09-27T05:53:01.626Z,78.75
2018-09-27T05:54:01.575Z,78.75
2018-09-27T05:55:01.501Z,84.38
2018-09-27T05:56:01.500Z,84.38
2018-09-27T05:57:01.406Z,84.38
2018-09-27T05:58:01.369Z,90.00
2018-09-27T05:59:01.354Z,90.00
2018-09-27T06:00:01.274Z,95.63
2018-09-27T06:01:01.260Z,95.63
2018-09-27T06:02:01.228Z,95.63
2018-09-27T06:03:01.159Z,101.25
2018-09-27T06:04:01.106Z,101.25
2018-09-27T06:05:01.091Z,106.88
2018-09-27T06:06:01.078Z,106.88
2018-09-27T06:07:00.994Z,106.88
2018-09-27T06:08:00.938Z,112.50
2018-09-27T06:09:00.900Z,112.50
2018-09-27T06:10:00.853Z,129.38
2018-09-27T06:11:00.841Z,196.88
2018-09-27T06:12:00.770Z,270.00
2018-09-27T06:13:00.737Z,292.50
2018-09-27T06:14:00.694Z,303.75
2018-09-27T06:15:00.650Z,315.00
2018-09-27T06:16:00.651Z,315.00
2018-09-27T06:17:00.572Z,315.00
2018-09-27T06:18:00.527Z,320.63
2018-09-27T06:19:00.473Z,326.25
2018-09-27T06:20:00.437Z,331.88
2018-09-27T06:21:00.418Z,337.50
2018-09-27T06:22:00.344Z,348.75
2018-09-27T06:23:00.305Z,354.38
2018-09-27T06:24:00.283Z,360.00
2018-09-27T06:25:00.243Z,365.63
2018-09-27T06:26:00.284Z,371.25
2018-09-27T06:27:00.152Z,376.88
2018-09-27T06:28:00.118Z,382.50
2018-09-27T06:29:00.089Z,388.13
2018-09-27T06:30:00.058Z,393.75
2018-09-27T06:31:00.079Z,399.38
2018-09-27T06:31:59.939Z,388.13
2018-09-27T06:32:59.921Z,393.75
2018-09-27T06:33:59.871Z,393.75
2018-09-27T06:34:59.835Z,405.00
2018-09-27T06:35:59.823Z,405.00
2018-09-27T06:36:59.759Z,416.25
2018-09-27T06:37:59.748Z,416.25
2018-09-27T06:38:59.693Z,421.88
2018-09-27T06:39:59.640Z,427.50
2018-09-27T06:40:59.642Z,433.13
2018-09-27T06:41:59.588Z,444.38
2018-09-27T06:42:59.534Z,444.38
2018-09-27T06:43:59.504Z,450.00
2018-09-27T06:44:59.487Z,450.00
2018-09-27T06:45:59.405Z,455.63
2018-09-27T06:46:59.355Z,461.25
2018-09-27T06:47:59.332Z,466.88
2018-09-27T06:48:59.292Z,466.88
2018-09-27T06:49:59.261Z,472.50
2018-09-27T06:50:59.245Z,478.13
2018-09-27T06:51:59.175Z,478.13
2018-09-27T06:52:59.164Z,483.75
2018-09-27T06:53:59.124Z,483.75
2018-09-27T06:54:59.257Z,489.38
2018-09-27T06:55:59.145Z,495.00
2018-09-27T06:56:59.014Z,506.25
2018-09-27T06:57:58.966Z,506.25
2018-09-27T06:58:58.955Z,506.25
2018-09-27T06:59:58.923Z,511.88
2018-09-27T07:00:58.934Z,517.50
2018-09-27T07:01:58.840Z,523.13
2018-09-27T07:02:58.789Z,528.75
2018-09-27T07:03:58.736Z,528.75
2018-09-27T07:04:58.712Z,540.00
2018-09-27T07:05:58.721Z,540.00
2018-09-27T07:06:58.637Z,545.63
2018-09-27T07:07:58.583Z,551.25
2018-09-27T07:08:58.578Z,562.50
2018-09-27T07:09:58.541Z,562.50
2018-09-27T07:10:58.486Z,573.75
2018-09-27T07:11:58.480Z,579.38
2018-09-27T07:12:58.393Z,585.00
2018-09-27T07:13:58.367Z,590.63
2018-09-27T07:14:58.389Z,601.88
2018-09-27T07:15:58.357Z,601.88
2018-09-27T07:16:58.268Z,613.13
2018-09-27T07:17:58.230Z,613.13
2018-09-27T07:18:58.177Z,624.38
2018-09-27T07:19:58.160Z,624.38
2018-09-27T07:20:58.141Z,630.00
2018-09-27T07:21:58.085Z,635.63
2018-09-27T07:22:58.052Z,641.25
2018-09-27T07:23:58.007Z,646.88
2018-09-27T07:24:58.000Z,658.13
2018-09-27T07:25:57.958Z,669.38
2018-09-27T07:26:57.956Z,669.38
2018-09-27T07:27:57.895Z,680.63
2018-09-27T07:28:57.841Z,691.88
2018-09-27T07:29:57.818Z,697.50
2018-09-27T07:30:57.807Z,708.75
2018-09-27T07:31:57.722Z,720.00
2018-09-27T07:32:57.690Z,736.88
2018-09-27T07:33:57.674Z,748.13
2018-09-27T07:34:57.637Z,759.38
2018-09-27T07:35:57.614Z,770.63
2018-09-27T07:36:57.561Z,776.25
2018-09-27T07:37:57.515Z,781.88
2018-09-27T07:38:57.480Z,798.75
2018-09-27T07:39:57.452Z,804.38
2018-09-27T07:40:57.445Z,815.63
2018-09-27T07:41:57.421Z,832.50
2018-09-27T07:42:57.362Z,860.63
2018-09-27T07:43:57.321Z,877.50
2018-09-27T07:44:57.297Z,900.00
2018-09-27T07:45:57.271Z,922.50
2018-09-27T07:46:57.221Z,961.88
2018-09-27T07:47:57.213Z,1029.38
2018-09-27T07:48:57.172Z,939.38
2018-09-27T07:49:57.111Z,849.38
2018-09-27T07:50:57.077Z,843.75
2018-09-27T07:51:57.079Z,855.00
2018-09-27T07:52:57.072Z,866.25
2018-09-27T07:53:57.001Z,866.25
2018-09-27T07:54:57.005Z,871.88
2018-09-27T07:55:56.957Z,877.50
2018-09-27T07:56:56.877Z,871.88
2018-09-27T07:57:58.558Z,877.50
2018-09-27T07:58:56.824Z,888.75
2018-09-27T07:59:56.833Z,894.38
2018-09-27T08:00:56.787Z,905.63
2018-09-27T08:01:56.725Z,928.13
2018-09-27T08:02:56.770Z,916.88
2018-09-27T08:03:56.708Z,900.00
2018-09-27T08:04:56.620Z,894.38
2018-09-27T08:05:56.572Z,900.00
2018-09-27T08:06:56.546Z,905.63
2018-09-27T08:07:56.531Z,916.88
2018-09-27T08:08:56.463Z,933.75
2018-09-27T08:09:56.446Z,928.13
2018-09-27T08:10:56.464Z,933.75
2018-09-27T08:11:56.451Z,939.38
2018-09-27T08:12:56.362Z,956.25
2018-09-27T08:13:56.363Z,950.63
2018-09-27T08:14:56.276Z,956.25
2018-09-27T08:15:56.235Z,961.88
2018-09-27T08:16:56.252Z,967.50
2018-09-27T08:17:56.179Z,967.50
2018-09-27T08:18:56.170Z,973.13
2018-09-27T08:19:56.128Z,990.00
2018-09-27T08:20:56.139Z,1035.00
2018-09-27T08:21:56.048Z,1063.13
2018-09-27T08:22:56.070Z,1102.50
2018-09-27T08:23:56.006Z,1147.50
2018-09-27T08:24:55.946Z,1186.88
2018-09-27T08:25:55.962Z,1220.63
2018-09-27T08:26:55.897Z,1243.13
2018-09-27T08:27:55.904Z,1243.13
2018-09-27T08:28:55.826Z,1231.88
2018-09-27T08:29:55.802Z,1276.88
2018-09-27T08:30:55.891Z,1361.25
2018-09-27T08:31:55.736Z,1428.75
2018-09-27T08:32:55.733Z,1423.13
2018-09-27T08:33:55.658Z,1411.88
2018-09-27T08:34:55.622Z,1366.88
2018-09-27T08:35:55.591Z,1344.38
2018-09-27T08:36:55.545Z,1361.25
2018-09-27T08:37:55.545Z,1451.25
2018-09-27T08:38:55.485Z,1541.25
2018-09-27T08:39:55.456Z,1648.13
2018-09-27T08:40:55.471Z,1766.25
2018-09-27T08:41:55.388Z,1873.13
2018-09-27T08:42:55.371Z,1974.38
2018-09-27T08:44:05.700Z,2053.13
2018-09-27T08:44:55.450Z,2041.88
2018-09-27T08:45:55.296Z,2131.88
2018-09-27T08:46:55.216Z,2283.75
2018-09-27T08:47:55.225Z,2379.38
2018-09-27T08:48:55.167Z,2565.00
2018-09-27T08:49:55.131Z,2784.38
2018-09-27T08:50:55.085Z,3138.75
2018-09-27T08:51:55.044Z,3380.63
2018-09-27T08:52:55.046Z,3116.25
2018-09-27T08:53:54.990Z,2587.50
2018-09-27T08:54:55.015Z,2205.00
2018-09-27T08:55:55.036Z,1951.88
2018-09-27T08:56:54.899Z,1816.88
2018-09-27T08:57:54.985Z,1693.13
2018-09-27T08:58:54.818Z,1614.38
2018-09-27T08:59:54.791Z,1507.50
2018-09-27T09:00:54.753Z,1428.75
2018-09-27T09:01:54.727Z,1378.13
2018-09-27T09:02:54.735Z,1355.63
2018-09-27T09:03:54.759Z,1344.38
2018-09-27T09:04:54.638Z,1344.38
2018-09-27T09:05:54.594Z,1361.25
2018-09-27T09:06:54.588Z,1378.13
2018-09-27T09:07:54.540Z,1395.00
2018-09-27T09:08:54.509Z,1417.50
2018-09-27T09:09:54.466Z,1411.88
2018-09-27T09:10:54.451Z,1389.38
2018-09-27T09:11:54.440Z,1372.50
2018-09-27T09:12:54.374Z,1361.25
2018-09-27T09:13:54.353Z,1355.63
2018-09-27T09:14:54.332Z,1350.00
2018-09-27T09:15:54.304Z,1338.75
2018-09-27T09:16:54.300Z,1338.75
2018-09-27T09:17:54.230Z,1417.50
2018-09-27T09:18:54.184Z,1586.25
2018-09-27T09:19:54.166Z,1828.13
2018-09-27T09:20:54.130Z,1833.75
2018-09-27T09:21:54.155Z,1693.13
2018-09-27T09:22:54.085Z,1749.38
2018-09-27T09:23:54.050Z,1867.50
2018-09-27T09:24:54.006Z,1980.00
2018-09-27T09:25:53.986Z,2075.63
2018-09-27T09:26:53.999Z,2002.50
2018-09-27T09:27:53.924Z,2030.63
2018-09-27T09:28:53.883Z,2216.25
2018-09-27T09:29:53.889Z,2216.25
2018-09-27T09:31:05.180Z,2216.25
2018-09-27T09:31:54.526Z,2306.25
2018-09-27T09:32:53.775Z,2306.25
2018-09-27T09:33:53.741Z,2272.50
2018-09-27T09:34:53.698Z,2160.00
2018-09-27T09:35:53.682Z,2143.13
2018-09-27T09:36:53.679Z,2390.63
2018-09-27T09:37:53.876Z,2536.88
2018-09-27T09:38:53.578Z,2559.38
2018-09-27T09:39:53.536Z,2565.00
2018-09-27T09:40:53.510Z,2655.00
2018-09-27T09:41:53.499Z,2705.63
2018-09-27T09:42:53.444Z,2683.13
2018-09-27T09:43:53.413Z,2767.50
2018-09-27T09:44:53.389Z,2835.00
2018-09-27T09:45:53.359Z,2778.75
2018-09-27T09:46:53.350Z,2891.25
2018-09-27T09:47:53.295Z,2846.25
2018-09-27T09:48:53.268Z,2801.25
2018-09-27T09:49:53.268Z,2778.75
2018-09-27T09:50:53.224Z,2756.25
2018-09-27T09:51:53.178Z,2767.50
2018-09-27T09:52:53.148Z,2857.50
2018-09-27T09:54:04.240Z,2863.13
2018-09-27T09:54:53.088Z,2829.38
2018-09-27T09:55:53.075Z,2874.38
2018-09-27T09:56:53.020Z,2930.63
2018-09-27T09:57:52.995Z,2953.13
2018-09-27T09:58:52.955Z,3003.75
2018-09-27T09:59:52.963Z,2970.00
2018-09-27T10:00:52.934Z,3003.75
2018-09-27T10:01:52.883Z,3054.38
2018-09-27T10:02:53.646Z,2975.63
2018-09-27T10:03:52.814Z,2941.88
2018-09-27T10:04:52.783Z,3020.63
2018-09-27T10:05:52.768Z,2773.13
2018-09-27T10:06:52.717Z,2514.38
2018-09-27T10:07:52.695Z,2649.38
2018-09-27T10:08:52.676Z,2986.88
2018-09-27T10:09:52.623Z,2936.25
2018-09-27T10:10:52.613Z,2829.38
2018-09-27T10:11:52.567Z,2941.88
2018-09-27T10:12:52.533Z,2930.63
2018-09-27T10:13:52.522Z,2784.38
2018-09-27T10:14:52.486Z,2818.13
2018-09-27T10:15:52.475Z,3009.38
2018-09-27T10:16:52.443Z,3020.63
2018-09-27T10:17:52.470Z,2981.25
2018-09-27T10:18:52.356Z,3003.75
2018-09-27T10:19:52.328Z,2998.13
2018-09-27T10:20:52.332Z,2975.63
2018-09-27T10:21:52.393Z,3009.38
2018-09-27T10:22:52.249Z,3065.63
2018-09-27T10:23:52.299Z,3060.00
2018-09-27T10:24:52.196Z,2998.13
2018-09-27T10:25:52.256Z,3088.13
2018-09-27T10:26:52.154Z,3133.13
2018-09-27T10:27:52.113Z,3110.63
2018-09-27T10:28:52.064Z,2958.75
2018-09-27T10:29:52.045Z,2998.13
2018-09-27T10:30:52.037Z,3037.50
2018-09-27T10:31:51.977Z,3020.63
2018-09-27T10:32:51.947Z,3026.25
2018-09-27T10:33:51.956Z,2925.00
2018-09-27T10:34:51.919Z,2896.88
2018-09-27T10:35:51.894Z,2919.38
2018-09-27T10:36:51.835Z,2975.63
2018-09-27T10:37:51.783Z,2953.13
2018-09-27T10:38:51.770Z,3048.75
2018-09-27T10:39:51.760Z,3015.00
2018-09-27T10:40:51.704Z,2930.63
2018-09-27T10:41:51.684Z,3043.13
2018-09-27T10:42:51.638Z,3048.75
2018-09-27T10:43:51.606Z,3060.00
2018-09-27T10:44:51.634Z,2986.88
2018-09-27T10:45:51.594Z,2947.50
2018-09-27T10:46:51.522Z,2992.50
2018-09-27T10:47:51.503Z,3082.50
2018-09-27T10:48:51.472Z,3121.88
2018-09-27T10:49:51.460Z,3031.88
2018-09-27T10:50:51.403Z,2958.75
2018-09-27T10:51:51.374Z,2986.88
2018-09-27T10:52:51.378Z,2975.63
2018-09-27T10:53:51.332Z,2941.88
2018-09-27T10:54:51.315Z,3020.63
2018-09-27T10:55:51.278Z,3015.00
2018-09-27T10:56:51.226Z,2975.63
2018-09-27T10:57:51.203Z,2958.75
2018-09-27T10:58:51.188Z,2970.00
2018-09-27T10:59:51.190Z,2947.50
2018-09-27T11:00:51.141Z,2930.63
2018-09-27T11:01:51.082Z,2975.63
2018-09-27T11:02:51.063Z,2958.75
2018-09-27T11:03:51.039Z,2863.13
2018-09-27T11:04:51.021Z,2874.38
2018-09-27T11:05:50.991Z,2863.13
2018-09-27T11:06:50.936Z,2840.63
2018-09-27T11:07:50.907Z,2778.75
2018-09-27T11:08:50.903Z,2851.88
2018-09-27T11:09:50.889Z,2896.88
2018-09-27T11:10:50.828Z,2880.00
2018-09-27T11:11:50.792Z,2941.88
2018-09-27T11:12:50.774Z,2975.63
2018-09-27T11:13:50.725Z,2975.63
2018-09-27T11:14:50.717Z,2941.88
2018-09-27T11:15:50.672Z,2919.38
2018-09-27T11:16:50.635Z,2857.50
2018-09-27T11:17:50.611Z,2767.50
2018-09-27T11:18:50.585Z,2739.38
2018-09-27T11:19:50.581Z,2885.63
2018-09-27T11:20:50.548Z,2941.88
2018-09-27T11:21:50.506Z,2829.38
2018-09-27T11:22:50.468Z,2784.38
2018-09-27T11:23:50.464Z,2615.63
2018-09-27T11:24:50.412Z,2733.75
2018-09-27T11:25:50.401Z,2958.75
2018-09-27T11:26:50.346Z,2896.88
2018-09-27T11:27:50.317Z,2688.75
2018-09-27T11:28:50.333Z,2700.00
2018-09-27T11:29:50.275Z,2840.63
2018-09-27T11:30:50.243Z,2863.13
2018-09-27T11:31:50.205Z,2745.00
2018-09-27T11:32:50.217Z,2767.50
2018-09-27T11:33:50.154Z,2812.50
2018-09-27T11:34:50.158Z,2795.63
2018-09-27T11:35:50.078Z,2733.75
2018-09-27T11:36:50.051Z,2790.00
2018-09-27T11:37:50.048Z,2733.75
2018-09-27T11:38:50.034Z,2716.88
2018-09-27T11:39:49.974Z,2700.00
2018-09-27T11:40:49.967Z,2677.50
2018-09-27T11:41:49.901Z,2711.25
2018-09-27T11:42:49.978Z,2733.75
2018-09-27T11:43:51.862Z,2671.88
2018-09-27T11:44:49.821Z,2694.38
2018-09-27T11:45:49.799Z,2773.13
2018-09-27T11:46:49.775Z,2677.50
2018-09-27T11:47:49.726Z,2671.88
2018-09-27T11:48:49.791Z,2660.63
2018-09-27T11:49:49.766Z,2711.25
2018-09-27T11:50:49.639Z,2773.13
2018-09-27T11:51:49.634Z,2643.75
2018-09-27T11:52:49.588Z,2643.75
2018-09-27T11:53:49.569Z,2750.63
2018-09-27T11:54:49.664Z,2598.75
2018-09-27T11:55:49.495Z,2531.25
2018-09-27T11:56:49.459Z,2671.88
2018-09-27T11:57:49.489Z,2778.75
2018-09-27T11:58:49.430Z,2745.00
2018-09-27T11:59:49.381Z,2660.63
2018-09-27T12:00:49.343Z,2632.50
2018-09-27T12:01:49.323Z,2615.63
2018-09-27T12:02:49.290Z,2553.75
2018-09-27T12:03:49.283Z,2548.13
2018-09-27T12:04:49.230Z,2553.75
2018-09-27T12:05:49.232Z,2593.13
2018-09-27T12:06:49.172Z,2610.00
2018-09-27T12:07:49.180Z,2615.63
2018-09-27T12:08:49.112Z,2581.88
2018-09-27T12:09:49.112Z,2553.75
2018-09-27T12:10:49.053Z,2570.63
2018-09-27T12:11:49.060Z,2514.38
2018-09-27T12:12:48.996Z,2491.88
2018-09-27T12:13:48.981Z,2396.25
2018-09-27T12:14:49.029Z,2458.13
2018-09-27T12:15:48.906Z,2548.13
2018-09-27T12:16:48.964Z,2458.13
2018-09-27T12:17:48.847Z,2475.00
2018-09-27T12:18:48.804Z,2497.50
2018-09-27T12:19:48.782Z,2536.88
2018-09-27T12:20:48.796Z,2581.88
2018-09-27T12:21:48.743Z,2553.75
2018-09-27T12:22:48.697Z,2463.75
2018-09-27T12:23:48.681Z,2553.75
2018-09-27T12:24:48.664Z,2520.00
2018-09-27T12:25:48.622Z,2491.88
2018-09-27T12:26:48.598Z,2570.63
2018-09-27T12:27:48.540Z,2553.75
2018-09-27T12:28:48.519Z,2486.25
2018-09-27T12:29:48.494Z,2486.25
2018-09-27T12:30:48.613Z,2458.13
2018-09-27T12:31:48.417Z,2475.00
2018-09-27T12:32:48.416Z,2435.63
2018-09-27T12:33:48.374Z,2446.88
2018-09-27T12:34:48.355Z,2463.75
2018-09-27T12:35:48.321Z,2435.63
2018-09-27T12:36:48.314Z,2368.13
2018-09-27T12:37:48.256Z,2340.00
2018-09-27T12:38:48.288Z,2368.13
2018-09-27T12:39:48.240Z,2356.88
2018-09-27T12:40:48.212Z,2351.25